Time;durP1;ratioP1;P1;durP2;ratioP2;P2;SDS_P1;SDS_P2;PMS_P1;PMS_P2;Temp;Humidity;BMP_temperature;BMP_pressure;BME280_temperature;BME280_humidity;BME280_pressure;Samples;Min_cycle;Max_cycle;Signal;HPM_P1;HPM_P2
2021/08/26 00:00:47;;;;;;;;;;;;;;;16.50;70.63;100100.38;4955075;29;19925;-62
2021/08/26 00:06:39;;;;;;;;;;;;;;;16.49;70.66;100089.91;4955651;29;19970;-63
2021/08/26 00:09:28;;;;;;;;;;;;;;;16.49;70.69;100076.81;4955753;29;19925;-63
2021/08/26 00:12:15;;;;;;;;;;;;;;;16.47;70.46;100076.84;4954633;29;19925;-63
2021/08/26 00:15:02;;;;;;;;;;;;;;;16.46;70.85;100082.06;4955585;29;19969;-62
2021/08/26 00:17:47;;;;;;;;;;;;;;;16.47;70.56;100083.81;4955209;29;19990;-62
2021/08/26 00:20:32;;;;;;;;;;;;;;;16.46;70.84;100075.09;4955692;29;19925;-63
2021/08/26 00:23:16;;;;;;;;;;;;;;;16.47;70.89;100079.47;4954512;29;19926;-63
2021/08/26 00:26:00;;;;;;;;;;;;;;;16.48;70.79;100080.31;4955108;29;19925;-61
2021/08/26 00:28:44;;;;;;;;;;;;;;;16.48;71.05;100085.53;4955628;29;19972;-61
2021/08/26 00:31:28;;;;;;;;;;;;;;;16.49;70.82;100071.59;4954487;29;19969;-61
2021/08/26 00:34:15;;;;;;;;;;;;;;;16.48;71.13;100075.97;4955582;29;19925;-61
2021/08/26 00:37:02;;;;;;;;;;;;;;;16.48;70.90;100065.50;4955523;29;19981;-61
2021/08/26 00:39:46;;;;;;;;;;;;;;;16.49;71.20;100061.13;4954487;29;20440;-61
2021/08/26 00:42:30;;;;;;;;;;;;;;;16.47;71.28;100061.16;4955237;29;19973;-61
2021/08/26 00:45:19;;;;;;;;;;;;;;;16.47;71.28;100057.66;4954781;29;19926;-61
2021/08/26 00:48:03;;;;;;;;;;;;;;;16.48;71.11;100054.16;4954511;29;20413;-61
2021/08/26 00:50:50;;;;;;;;;;;;;;;16.47;71.23;100049.81;4954344;29;20432;-62
2021/08/26 00:53:34;;;;;;;;;;;;;;;16.48;71.10;100048.94;4954828;29;19924;-62
2021/08/26 00:56:21;;;;;;;;;;;;;;;16.48;71.13;100048.94;4955148;29;20279;-61
2021/08/26 00:59:06;;;;;;;;;;;;;;;16.47;71.21;100048.06;4956138;28;19970;-61
2021/08/26 01:01:54;;;;;;;;;;;;;;;16.49;71.50;100053.28;4957549;29;20012;-62
2021/08/26 01:04:43;;;;;;;;;;;;;;;16.48;71.48;100044.56;4958364;29;20058;-61
2021/08/26 01:07:29;;;;;;;;;;;;;;;16.49;71.47;100040.19;4958660;29;19926;-63
2021/08/26 01:10:16;;;;;;;;;;;;;;;16.49;71.52;100040.19;4957612;29;19924;-63
2021/08/26 01:13:01;;;;;;;;;;;;;;;16.49;71.53;100035.84;4957513;29;19925;-63
2021/08/26 01:16:04;;;;;;;;;;;;;;;16.48;71.78;100028.88;4958313;29;19925;-63
2021/08/26 01:18:48;;;;;;;;;;;;;;;16.49;71.76;100024.50;4958170;29;20389;-62
2021/08/26 01:21:33;;;;;;;;;;;;;;;16.49;71.66;100011.44;4958416;29;19925;-63
2021/08/26 01:24:20;;;;;;;;;;;;;;;16.49;71.76;100008.81;4958355;29;19981;-62
2021/08/26 01:27:08;;;;;;;;;;;;;;;16.49;71.73;100004.47;4957322;29;20297;-62
2021/08/26 01:29:52;;;;;;;;;;;;;;;16.49;71.60;100000.97;4957372;29;19925;-63
2021/08/26 01:32:37;;;;;;;;;;;;;;;16.47;71.69;100005.34;4958214;29;19945;-63
2021/08/26 01:35:21;;;;;;;;;;;;;;;16.46;71.75;99999.25;4957123;29;19925;-62
2021/08/26 01:38:05;;;;;;;;;;;;;;;16.48;71.83;99983.53;4958517;29;19968;-63
2021/08/26 01:40:49;;;;;;;;;;;;;;;16.46;71.99;99980.94;4957916;29;19973;-63
2021/08/26 01:43:34;;;;;;;;;;;;;;;16.47;72.11;99981.78;4957773;29;20016;-63
2021/08/26 01:46:18;;;;;;;;;;;;;;;16.48;72.09;99978.31;4957801;29;19997;-62
2021/08/26 01:49:02;;;;;;;;;;;;;;;16.49;71.93;99972.19;4956876;29;19926;-61
2021/08/26 01:51:49;;;;;;;;;;;;;;;16.47;71.92;99971.34;4957964;29;19973;-61
2021/08/26 01:54:34;;;;;;;;;;;;;;;16.47;71.93;99964.38;4957566;29;20425;-61
2021/08/26 01:57:24;;;;;;;;;;;;;;;16.47;71.95;99969.59;4958066;29;19940;-61
2021/08/26 02:00:08;;;;;;;;;;;;;;;16.48;72.06;99968.72;4957205;29;19925;-61
2021/08/26 02:02:52;;;;;;;;;;;;;;;16.48;72.07;99965.22;4971301;28;19925;-61
2021/08/26 02:05:36;;;;;;;;;;;;;;;16.48;72.24;99971.34;4976942;28;19925;-61
2021/08/26 02:08:23;;;;;;;;;;;;;;;16.48;72.36;99962.59;4962526;28;20285;-62
2021/08/26 02:11:07;;;;;;;;;;;;;;;16.48;72.46;99966.09;4975932;28;19972;-61
2021/08/26 02:13:51;;;;;;;;;;;;;;;16.46;72.31;99962.63;4976629;28;19969;-61
2021/08/26 02:16:35;;;;;;;;;;;;;;;16.45;72.52;99960.91;4976543;28;20288;-61
2021/08/26 02:19:19;;;;;;;;;;;;;;;16.45;72.35;99960.91;4976766;28;20282;-61
2021/08/26 02:22:03;;;;;;;;;;;;;;;16.46;72.32;99956.53;4977004;28;19929;-61
2021/08/26 02:24:47;;;;;;;;;;;;;;;16.46;72.49;99936.47;4976533;28;20041;-61
2021/08/26 02:27:31;;;;;;;;;;;;;;;16.47;72.46;99937.31;4976724;28;20374;-62
2021/08/26 02:30:18;;;;;;;;;;;;;;;16.45;72.53;99937.34;4976866;28;19929;-62
2021/08/26 02:33:02;;;;;;;;;;;;;;;16.44;72.46;99946.09;4961701;28;19973;-61
2021/08/26 02:35:46;;;;;;;;;;;;;;;16.44;72.65;99928.63;4961590;28;19925;-61
2021/08/26 02:38:30;;;;;;;;;;;;;;;16.43;72.56;99931.28;4976399;28;20009;-61
2021/08/26 02:41:14;;;;;;;;;;;;;;;16.44;72.60;99928.63;4976226;28;19925;-61
2021/08/26 02:43:58;;;;;;;;;;;;;;;16.45;72.79;99916.44;4961709;28;19925;-61
2021/08/26 02:46:42;;;;;;;;;;;;;;;16.44;72.72;99926.00;4975885;28;20049;-61
2021/08/26 02:49:25;;;;;;;;;;;;;;;16.44;72.68;99920.78;4976342;28;20337;-61
2021/08/26 02:52:12;;;;;;;;;;;;;;;16.46;72.75;99922.50;4976386;28;19925;-61
2021/08/26 02:55:02;;;;;;;;;;;;;;;16.44;72.92;99912.09;4961114;28;19925;-61
2021/08/26 02:57:46;;;;;;;;;;;;;;;16.43;73.09;99916.44;4960323;28;19925;-61
2021/08/26 03:00:33;;;;;;;;;;;;;;;16.46;73.06;99923.41;4976196;28;19942;-61
2021/08/26 03:03:17;;;;;;;;;;;;;;;16.47;73.15;99924.25;4975431;28;20400;-61
2021/08/26 03:06:01;;;;;;;;;;;;;;;16.45;73.32;99924.28;4975555;28;19924;-61
2021/08/26 03:08:45;;;;;;;;;;;;;;;16.46;73.17;99920.78;4975585;28;19929;-61
2021/08/26 03:11:29;;;;;;;;;;;;;;;16.44;73.43;99912.94;4975250;28;19964;-61
2021/08/26 03:14:13;;;;;;;;;;;;;;;16.47;73.03;99917.28;4975341;28;19981;-62
2021/08/26 03:16:57;;;;;;;;;;;;;;;16.48;73.29;99918.13;4960897;28;19952;-61
2021/08/26 03:19:41;;;;;;;;;;;;;;;16.47;73.16;99914.66;4975629;28;19968;-62
2021/08/26 03:22:25;;;;;;;;;;;;;;;16.48;73.33;99913.78;4975527;28;20297;-61
2021/08/26 03:25:09;;;;;;;;;;;;;;;16.48;73.30;99912.91;4975452;28;19925;-61
2021/08/26 03:27:53;;;;;;;;;;;;;;;16.47;73.40;99901.59;4961138;28;20290;-61
2021/08/26 03:30:37;;;;;;;;;;;;;;;16.47;73.39;99908.56;4961192;28;20309;-61
2021/08/26 03:33:21;;;;;;;;;;;;;;;16.49;73.30;99904.19;4975491;28;19925;-61
2021/08/26 03:36:05;;;;;;;;;;;;;;;16.48;73.53;99891.97;4975593;28;19945;-61
2021/08/26 03:38:49;;;;;;;;;;;;;;;16.49;73.44;99896.34;4960597;28;19984;-61
2021/08/26 03:41:33;;;;;;;;;;;;;;;16.48;73.66;99903.34;4975389;28;19925;-61
2021/08/26 03:44:17;;;;;;;;;;;;;;;16.49;73.52;99904.19;4974758;28;19924;-61
2021/08/26 03:47:04;;;;;;;;;;;;;;;16.50;73.55;99903.31;4974949;28;19925;-61
2021/08/26 03:49:48;;;;;;;;;;;;;;;16.51;73.72;99905.03;4975302;28;19968;-61
2021/08/26 03:52:32;;;;;;;;;;;;;;;16.50;73.76;99905.91;4975484;28;20385;-61
2021/08/26 03:55:16;;;;;;;;;;;;;;;16.50;73.75;99905.91;4975070;28;19925;-61
2021/08/26 03:58:02;;;;;;;;;;;;;;;16.50;73.60;99909.41;4974909;28;19925;-61
2021/08/26 04:00:46;;;;;;;;;;;;;;;16.50;73.69;99911.16;4974888;28;20344;-61
2021/08/26 04:03:31;;;;;;;;;;;;;;;16.49;73.55;99906.78;4974523;28;19973;-62
2021/08/26 04:06:21;;;;;;;;;;;;;;;16.49;73.48;99912.91;4975031;28;19969;-63
2021/08/26 04:09:05;;;;;;;;;;;;;;;16.47;73.61;99914.66;4960396;28;20020;-62
2021/08/26 04:11:49;;;;;;;;;;;;;;;16.48;73.75;99912.91;4960183;28;20034;-63
2021/08/26 04:14:33;;;;;;;;;;;;;;;16.46;73.50;99909.44;4974924;28;20443;-62
2021/08/26 04:17:19;;;;;;;;;;;;;;;16.46;73.50;99909.44;4975303;28;19924;-62
2021/08/26 04:20:04;;;;;;;;;;;;;;;16.44;73.66;99907.69;4974433;28;19933;-63
2021/08/26 04:22:54;;;;;;;;;;;;;;;16.46;73.84;99909.44;4974435;28;20419;-63
2021/08/26 04:25:38;;;;;;;;;;;;;;;16.46;73.55;99901.59;4960598;28;19969;-62
2021/08/26 04:28:22;;;;;;;;;;;;;;;16.44;73.64;99906.84;4960422;28;19925;-61
2021/08/26 04:31:06;;;;;;;;;;;;;;;16.44;73.85;99905.09;4975019;28;19965;-61
2021/08/26 04:33:50;;;;;;;;;;;;;;;16.42;73.72;99903.38;4975120;28;19965;-61
2021/08/26 04:36:34;;;;;;;;;;;;;;;16.43;73.92;99903.34;4978878;28;19925;-61
2021/08/26 04:39:17;;;;;;;;;;;;;;;16.42;73.71;99895.53;4978019;28;20293;-61
2021/08/26 04:42:01;;;;;;;;;;;;;;;16.40;73.83;99903.41;4978577;28;19925;-61
2021/08/26 04:44:45;;;;;;;;;;;;;;;16.41;73.87;99901.66;4977944;28;19964;-62
2021/08/26 04:47:32;;;;;;;;;;;;;;;16.40;73.79;99897.28;4963608;28;19924;-61
2021/08/26 04:50:16;;;;;;;;;;;;;;;16.40;73.71;99905.13;4978131;28;19925;-61
2021/08/26 04:53:00;;;;;;;;;;;;;;;16.40;73.92;99900.78;4978505;28;19972;-61
2021/08/26 04:55:44;;;;;;;;;;;;;;;16.39;73.72;99906.91;4978022;28;19976;-61
2021/08/26 04:58:28;;;;;;;;;;;;;;;16.38;73.78;99902.56;4978132;28;19972;-61
2021/08/26 05:01:12;;;;;;;;;;;;;;;16.37;73.85;99908.66;4977650;28;19925;-61
2021/08/26 05:03:56;;;;;;;;;;;;;;;16.37;73.84;99907.78;4963735;28;19925;-61
2021/08/26 05:06:39;;;;;;;;;;;;;;;16.38;73.77;99909.50;4963701;28;19924;-61
2021/08/26 05:09:26;;;;;;;;;;;;;;;16.37;73.81;99905.16;4978252;28;20384;-61
2021/08/26 05:12:10;;;;;;;;;;;;;;;16.35;73.95;99907.81;4978265;28;19925;-62
2021/08/26 05:14:54;;;;;;;;;;;;;;;16.36;73.70;99909.53;4977713;28;19925;-61
2021/08/26 05:17:38;;;;;;;;;;;;;;;16.34;73.68;99907.84;4978091;28;19924;-63
2021/08/26 05:20:25;;;;;;;;;;;;;;;16.34;73.81;99913.91;4977249;28;19925;-63
2021/08/26 05:23:09;;;;;;;;;;;;;;;16.34;73.92;99920.91;4977598;28;20341;-61
2021/08/26 05:25:53;;;;;;;;;;;;;;;16.34;74.04;99911.31;4978083;28;20282;-61
2021/08/26 05:28:40;;;;;;;;;;;;;;;16.35;73.86;99906.97;4977754;28;19928;-61
2021/08/26 05:31:24;;;;;;;;;;;;;;;16.34;73.92;99913.06;4977646;28;19924;-62
2021/08/26 05:34:08;;;;;;;;;;;;;;;16.33;73.95;99914.81;4977622;28;19941;-63
2021/08/26 05:36:51;;;;;;;;;;;;;;;16.34;73.90;99920.91;4963138;28;19976;-63
2021/08/26 05:39:38;;;;;;;;;;;;;;;16.34;74.03;99926.16;4977377;28;19960;-63
2021/08/26 05:42:23;;;;;;;;;;;;;;;16.35;73.94;99925.25;4962875;28;19925;-63
2021/08/26 05:45:07;;;;;;;;;;;;;;;16.33;73.94;99922.66;4976789;28;19972;-62
2021/08/26 05:47:57;;;;;;;;;;;;;;;16.32;73.94;99920.06;4977542;28;19925;-62
2021/08/26 05:50:41;;;;;;;;;;;;;;;16.32;73.87;99920.91;4962810;28;19925;-62
2021/08/26 05:53:25;;;;;;;;;;;;;;;16.30;73.89;99922.66;4977194;28;20012;-63
2021/08/26 05:56:12;;;;;;;;;;;;;;;16.30;73.96;99922.66;4962753;28;20290;-63
2021/08/26 05:58:56;;;;;;;;;;;;;;;16.28;73.94;99927.03;4976952;28;19925;-62
2021/08/26 06:01:40;;;;;;;;;;;;;;;16.26;73.74;99928.84;4962530;28;20385;-62
2021/08/26 06:04:24;;;;;;;;;;;;;;;16.23;73.74;99929.72;4977305;28;19973;-63
2021/08/26 06:07:08;;;;;;;;;;;;;;;16.22;73.73;99925.34;4976995;28;19924;-62
2021/08/26 06:09:52;;;;;;;;;;;;;;;16.22;73.47;99930.59;4976637;28;19924;-63
2021/08/26 06:12:40;;;;;;;;;;;;;;;16.22;73.49;99932.34;4977184;28;19973;-63
2021/08/26 06:15:24;;;;;;;;;;;;;;;16.20;73.41;99919.28;4976444;28;19925;-62
2021/08/26 06:18:08;;;;;;;;;;;;;;;16.18;73.60;99923.66;4962329;28;19925;-62
2021/08/26 06:20:55;;;;;;;;;;;;;;;16.17;73.42;99916.72;4976587;28;20427;-62
2021/08/26 06:23:39;;;;;;;;;;;;;;;16.16;73.49;99914.97;4976887;28;19925;-63
2021/08/26 06:26:23;;;;;;;;;;;;;;;16.16;73.38;99925.44;4961610;28;19969;-63
2021/08/26 06:29:07;;;;;;;;;;;;;;;16.16;73.52;99922.81;4976799;28;19925;-63
2021/08/26 06:31:51;;;;;;;;;;;;;;;16.16;73.33;99928.03;4976275;28;19965;-63
2021/08/26 06:34:35;;;;;;;;;;;;;;;16.16;73.32;99930.66;4961888;28;19930;-63
2021/08/26 06:37:19;;;;;;;;;;;;;;;16.13;73.22;99928.91;4976474;28;20381;-62
2021/08/26 06:40:03;;;;;;;;;;;;;;;16.14;73.14;99935.03;4961501;28;19968;-62
2021/08/26 06:42:55;;;;;;;;;;;;;;;16.14;73.06;99935.03;4961798;28;19925;-63
2021/08/26 06:45:39;;;;;;;;;;;;;;;16.13;73.26;99936.75;4961481;28;20395;-63
2021/08/26 06:48:29;;;;;;;;;;;;;;;16.13;73.26;99938.53;4975988;28;20412;-63
2021/08/26 06:51:17;;;;;;;;;;;;;;;16.13;73.14;99941.97;4962159;28;19965;-63
2021/08/26 06:54:00;;;;;;;;;;;;;;;16.14;73.22;99948.94;4961605;28;20000;-62
2021/08/26 06:56:47;;;;;;;;;;;;;;;16.12;72.94;99942.00;4975698;28;19972;-62
2021/08/26 06:59:35;;;;;;;;;;;;;;;16.12;73.05;99945.47;4976156;28;19925;-62
2021/08/26 07:02:18;;;;;;;;;;;;;;;16.13;73.07;99947.22;4976094;28;20364;-63
2021/08/26 07:05:03;;;;;;;;;;;;;;;16.12;73.02;99945.47;4975851;28;19941;-63
2021/08/26 07:07:52;;;;;;;;;;;;;;;16.13;72.85;99952.44;4975692;28;19941;-62
2021/08/26 07:10:36;;;;;;;;;;;;;;;16.12;72.81;99955.94;4960801;28;19925;-63
2021/08/26 07:13:23;;;;;;;;;;;;;;;16.12;72.78;99953.31;4975688;28;19924;-63
2021/08/26 07:16:07;;;;;;;;;;;;;;;16.13;72.48;99941.97;4961559;28;19925;-63
2021/08/26 07:18:54;;;;;;;;;;;;;;;16.14;72.83;99950.72;4961060;28;20015;-63
2021/08/26 07:21:43;;;;;;;;;;;;;;;16.13;72.90;99962.91;4975929;28;19925;-63
2021/08/26 07:24:31;;;;;;;;;;;;;;;16.12;72.64;99958.56;4960363;28;19960;-63
2021/08/26 07:27:15;;;;;;;;;;;;;;;16.13;72.79;99965.50;4960530;28;19973;-61
2021/08/26 07:29:58;;;;;;;;;;;;;;;16.13;72.60;99965.50;4960673;28;19950;-63
2021/08/26 07:32:43;;;;;;;;;;;;;;;16.11;72.67;99959.47;4975253;28;19925;-63
2021/08/26 07:35:32;;;;;;;;;;;;;;;16.11;72.46;99961.19;4975163;28;19924;-63
2021/08/26 07:38:16;;;;;;;;;;;;;;;16.10;72.58;99962.94;4960237;28;19925;-61
2021/08/26 07:41:06;;;;;;;;;;;;;;;16.09;72.35;99958.59;4975331;28;19925;-61
2021/08/26 07:43:50;;;;;;;;;;;;;;;16.11;72.44;99967.31;4959865;28;19968;-62
2021/08/26 07:46:40;;;;;;;;;;;;;;;16.12;72.46;99962.94;4975062;28;20389;-61
2021/08/26 07:49:24;;;;;;;;;;;;;;;16.10;72.24;99964.69;4961032;28;19942;-61
2021/08/26 07:52:13;;;;;;;;;;;;;;;16.10;72.34;99965.56;4975691;28;19964;-61
2021/08/26 07:55:02;;;;;;;;;;;;;;;16.09;72.18;99963.81;4960181;28;19925;-61
2021/08/26 07:57:46;;;;;;;;;;;;;;;16.10;72.18;99964.69;4960722;28;20392;-61
2021/08/26 08:00:33;;;;;;;;;;;;;;;16.08;72.04;99969.94;4974880;28;19960;-61
2021/08/26 08:03:20;;;;;;;;;;;;;;;16.07;72.20;99965.59;4959917;28;19925;-61
2021/08/26 08:06:07;;;;;;;;;;;;;;;16.09;72.21;99965.56;4974613;28;20316;-61
2021/08/26 08:08:51;;;;;;;;;;;;;;;16.08;72.05;99958.59;4960542;28;19969;-61
2021/08/26 08:11:35;;;;;;;;;;;;;;;16.09;72.08;99960.31;4979358;28;20293;-61
2021/08/26 08:14:19;;;;;;;;;;;;;;;16.09;72.15;99961.22;4964914;28;19944;-63
2021/08/26 08:17:03;;;;;;;;;;;;;;;16.09;71.95;99963.81;4978868;28;20293;-63
2021/08/26 08:19:50;;;;;;;;;;;;;;;16.09;72.08;99961.22;4978886;28;19925;-63
2021/08/26 08:22:36;;;;;;;;;;;;;;;16.10;72.17;99957.72;4964724;28;19929;-62
2021/08/26 08:25:24;;;;;;;;;;;;;;;16.11;72.15;99962.06;4964102;28;19925;-62
2021/08/26 08:28:17;;;;;;;;;;;;;;;16.13;72.32;99959.44;4978303;28;19924;-62
2021/08/26 08:31:05;;;;;;;;;;;;;;;16.10;72.00;99954.22;4964406;28;19929;-63
2021/08/26 08:33:54;;;;;;;;;;;;;;;16.11;72.12;99954.22;4964025;28;20337;-63
2021/08/26 08:36:38;;;;;;;;;;;;;;;16.11;72.12;99949.00;4963856;28;20282;-63
2021/08/26 08:39:23;;;;;;;;;;;;;;;16.11;71.94;99948.13;4963996;28;20388;-62
2021/08/26 08:42:13;;;;;;;;;;;;;;;16.11;71.89;99959.47;4964404;28;19972;-63
2021/08/26 08:45:03;;;;;;;;;;;;;;;16.12;71.91;99952.47;4964025;28;19925;-62
2021/08/26 08:47:48;;;;;;;;;;;;;;;16.12;71.85;99957.69;4963654;28;20270;-62
2021/08/26 08:50:32;;;;;;;;;;;;;;;16.12;72.07;99949.84;4978328;28;19925;-63
2021/08/26 08:53:16;;;;;;;;;;;;;;;16.12;71.87;99949.84;4978291;28;19925;-63
2021/08/26 08:56:05;;;;;;;;;;;;;;;16.13;71.97;99951.59;4977684;28;19925;-62
2021/08/26 08:58:49;;;;;;;;;;;;;;;16.13;72.03;99960.28;4963535;28;20375;-63
2021/08/26 09:01:33;;;;;;;;;;;;;;;16.13;72.04;99954.22;4977849;28;20334;-63
2021/08/26 09:04:20;;;;;;;;;;;;;;;16.13;71.93;99951.59;4978379;28;19924;-63
2021/08/26 09:07:03;;;;;;;;;;;;;;;16.12;71.82;99940.25;4963584;28;19965;-63
2021/08/26 09:09:59;;;;;;;;;;;;;;;16.13;71.78;99943.75;4977812;28;20029;-63
2021/08/26 09:12:49;;;;;;;;;;;;;;;16.12;71.75;99937.63;4963615;28;19921;-63
2021/08/26 09:15:38;;;;;;;;;;;;;;;16.16;71.90;99940.22;4963093;28;19925;-63
2021/08/26 09:18:25;;;;;;;;;;;;;;;16.16;71.85;99948.97;4963056;28;20388;-61
2021/08/26 09:21:15;;;;;;;;;;;;;;;16.15;71.84;99947.22;4977281;28;19972;-63
2021/08/26 09:24:00;;;;;;;;;;;;;;;16.14;71.70;99950.72;4963005;28;19973;-61
2021/08/26 09:26:47;;;;;;;;;;;;;;;16.14;71.79;99950.72;4963359;28;19925;-61
2021/08/26 09:29:31;;;;;;;;;;;;;;;16.14;71.83;99950.72;4963328;28;19925;-61
2021/08/26 09:32:23;;;;;;;;;;;;;;;16.19;72.04;99943.72;4977439;28;19929;-63
2021/08/26 09:35:12;;;;;;;;;;;;;;;16.23;72.00;99937.53;4977260;28;19925;-63
2021/08/26 09:37:57;;;;;;;;;;;;;;;16.27;71.96;99934.03;4962755;28;19961;-63
2021/08/26 09:40:44;;;;;;;;;;;;;;;16.28;72.00;99938.38;4977406;28;19924;-62
2021/08/26 09:43:34;;;;;;;;;;;;;;;16.31;71.85;99937.47;4963096;28;19972;-63
2021/08/26 09:46:34;;;;;;;;;;;;;;;16.29;71.93;99945.34;4977246;28;20394;-62
2021/08/26 09:49:19;;;;;;;;;;;;;;;16.33;71.83;99938.34;4962875;28;19925;-63
2021/08/26 09:52:08;;;;;;;;;;;;;;;16.33;72.01;99940.94;4977620;28;19929;-62
2021/08/26 09:54:56;;;;;;;;;;;;;;;16.35;71.98;99940.94;4962450;28;19924;-62
2021/08/26 09:57:43;;;;;;;;;;;;;;;16.35;72.02;99940.94;4962487;28;19972;-63
2021/08/26 10:00:28;;;;;;;;;;;;;;;16.35;72.23;99938.34;4962371;28;19960;-63
2021/08/26 10:03:14;;;;;;;;;;;;;;;16.35;72.11;99941.81;4962102;28;20022;-63
2021/08/26 10:05:58;;;;;;;;;;;;;;;16.36;71.90;99938.31;4962588;28;20016;-62
2021/08/26 10:08:43;;;;;;;;;;;;;;;16.38;71.95;99933.94;4976993;28;19940;-62
2021/08/26 10:11:27;;;;;;;;;;;;;;;16.40;71.98;99934.78;4976777;28;19968;-62
2021/08/26 10:14:15;;;;;;;;;;;;;;;16.41;71.86;99941.75;4976684;28;19968;-63
2021/08/26 10:17:02;;;;;;;;;;;;;;;16.42;71.81;99948.72;4962041;28;19964;-63
2021/08/26 10:19:50;;;;;;;;;;;;;;;16.42;71.92;99943.50;4962391;28;20325;-62
2021/08/26 10:22:34;;;;;;;;;;;;;;;16.42;71.83;99948.72;4976755;28;19988;-63
2021/08/26 10:25:18;;;;;;;;;;;;;;;16.42;71.67;99934.75;4962362;28;20388;-63
2021/08/26 10:28:03;;;;;;;;;;;;;;;16.41;71.78;99931.28;4962806;28;19925;-62
2021/08/26 10:30:50;;;;;;;;;;;;;;;16.42;72.04;99929.53;4976499;28;19925;-63
2021/08/26 10:33:33;;;;;;;;;;;;;;;16.40;71.82;99933.91;4961167;28;20297;-63
2021/08/26 10:36:19;;;;;;;;;;;;;;;16.41;71.61;99927.78;4976733;28;19924;-63
2021/08/26 10:39:21;;;;;;;;;;;;;;;16.40;71.76;99934.78;4961937;28;20400;-63
2021/08/26 10:42:28;;;;;;;;;;;;;;;16.41;71.85;99938.25;4976269;28;19999;-62
2021/08/26 10:45:19;;;;;;;;;;;;;;;16.42;71.59;99940.00;4961981;28;19925;-62
2021/08/26 10:48:03;;;;;;;;;;;;;;;16.40;71.72;99941.75;4961630;28;19972;-62
2021/08/26 10:51:07;;;;;;;;;;;;;;;16.41;71.64;99936.53;4976429;28;19925;-63
2021/08/26 10:53:57;;;;;;;;;;;;;;;16.40;71.33;99947.88;4975833;28;19925;-63
2021/08/26 10:56:41;;;;;;;;;;;;;;;16.40;71.54;99947.88;4961808;28;19925;-62
2021/08/26 10:59:26;;;;;;;;;;;;;;;16.42;71.74;99948.72;4975903;28;19928;-63
2021/08/26 11:02:30;;;;;;;;;;;;;;;16.42;71.60;99947.84;4961028;28;19925;-62
2021/08/26 11:05:32;;;;;;;;;;;;;;;16.41;71.48;99943.50;4976229;28;19925;-62
2021/08/26 11:08:25;;;;;;;;;;;;;;;16.41;71.50;99952.22;4975854;28;19973;-63
2021/08/26 11:11:36;;;;;;;;;;;;;;;16.41;71.52;99949.59;4975625;28;19924;-62
2021/08/26 11:14:26;;;;;;;;;;;;;;;16.40;71.48;99941.75;4961124;28;19925;-62
2021/08/26 11:17:21;;;;;;;;;;;;;;;16.41;71.53;99939.16;4961410;28;19973;-62
2021/08/26 11:20:28;;;;;;;;;;;;;;;16.41;71.69;99952.22;4975167;28;19925;-63
2021/08/26 11:23:11;;;;;;;;;;;;;;;16.41;71.63;99947.00;4975129;28;20297;-61
2021/08/26 11:25:55;;;;;;;;;;;;;;;16.41;71.67;99943.50;4975248;28;20390;-62
2021/08/26 11:28:39;;;;;;;;;;;;;;;16.41;71.40;99944.38;4975109;28;19986;-62
2021/08/26 11:31:23;;;;;;;;;;;;;;;16.41;71.38;99948.72;4961428;28;19925;-61
2021/08/26 11:34:13;;;;;;;;;;;;;;;16.42;71.60;99940.00;4975704;28;19925;-61
2021/08/26 11:37:05;;;;;;;;;;;;;;;16.41;71.46;99947.00;4960979;28;20286;-62
2021/08/26 11:39:49;;;;;;;;;;;;;;;16.40;71.41;99942.63;4960930;28;19964;-61
2021/08/26 11:42:34;;;;;;;;;;;;;;;16.37;71.27;99947.91;4975651;28;20013;-61
2021/08/26 11:45:25;;;;;;;;;;;;;;;16.37;71.43;99947.91;4975111;28;19925;-62
2021/08/26 11:48:10;;;;;;;;;;;;;;;16.35;71.60;99944.41;4960843;28;19925;-63
2021/08/26 11:50:54;;;;;;;;;;;;;;;16.37;71.69;99944.41;4975073;28;19924;-63
2021/08/26 11:53:38;;;;;;;;;;;;;;;16.38;71.78;99943.50;4960841;28;19980;-63
2021/08/26 11:56:24;;;;;;;;;;;;;;;16.36;71.50;99943.53;4960548;28;19964;-61
2021/08/26 11:59:27;;;;;;;;;;;;;;;16.37;71.65;99937.44;4960697;28;19968;-61
2021/08/26 12:02:20;;;;;;;;;;;;;;;16.34;71.28;99940.06;4960644;28;19965;-62
2021/08/26 12:05:08;;;;;;;;;;;;;;;16.34;71.47;99940.06;4975329;28;20136;-61
2021/08/26 12:07:52;;;;;;;;;;;;;;;16.34;71.35;99937.44;4960837;28;20387;-63
2021/08/26 12:10:43;;;;;;;;;;;;;;;16.35;71.60;99933.97;4975413;28;20376;-63
2021/08/26 12:13:27;;;;;;;;;;;;;;;16.37;71.40;99937.44;4960666;28;20449;-63
2021/08/26 12:16:23;;;;;;;;;;;;;;;16.39;71.47;99934.78;4974924;28;20417;-61
2021/08/26 12:19:07;;;;;;;;;;;;;;;16.39;71.44;99924.31;4960570;28;19924;-62
2021/08/26 12:21:53;;;;;;;;;;;;;;;16.41;71.64;99926.06;4974901;28;19924;-62
2021/08/26 12:24:48;;;;;;;;;;;;;;;16.42;71.41;99919.97;4960672;28;20068;-63
2021/08/26 12:27:35;;;;;;;;;;;;;;;16.44;71.60;99927.78;4974767;28;20024;-62
2021/08/26 12:30:31;;;;;;;;;;;;;;;16.44;71.65;99935.63;4960430;28;19944;-62
2021/08/26 12:33:19;;;;;;;;;;;;;;;16.46;71.33;99936.47;4974349;28;19969;-63
2021/08/26 12:36:21;;;;;;;;;;;;;;;16.46;71.46;99928.63;4974656;28;19945;-63
2021/08/26 12:39:20;;;;;;;;;;;;;;;16.48;71.56;99931.22;4959865;28;19991;-63
2021/08/26 12:42:08;;;;;;;;;;;;;;;16.47;71.29;99927.75;4974949;28;20393;-62
2021/08/26 12:45:12;;;;;;;;;;;;;;;16.49;71.39;99932.94;4974823;28;19925;-63
2021/08/26 12:47:56;;;;;;;;;;;;;;;16.48;71.37;99929.50;4960094;28;20021;-63
2021/08/26 12:50:41;;;;;;;;;;;;;;;16.47;71.54;99932.09;4960052;28;19926;-62
2021/08/26 12:53:27;;;;;;;;;;;;;;;16.47;71.48;99926.88;4974771;28;19924;-61
2021/08/26 12:56:16;;;;;;;;;;;;;;;16.46;71.31;99919.91;4976303;28;19988;-61
2021/08/26 12:59:06;;;;;;;;;;;;;;;16.46;71.41;99909.44;4963765;28;20286;-61
2021/08/26 13:02:06;;;;;;;;;;;;;;;16.44;71.30;99918.16;4963772;28;19925;-61
2021/08/26 13:05:03;;;;;;;;;;;;;;;16.44;71.35;99912.09;4962994;28;19925;-61
2021/08/26 13:07:56;;;;;;;;;;;;;;;16.44;71.24;99918.16;4963667;28;20420;-61
2021/08/26 13:10:45;;;;;;;;;;;;;;;16.43;71.39;99919.03;4978363;28;20273;-62
2021/08/26 13:13:29;;;;;;;;;;;;;;;16.43;71.22;99919.03;4963781;28;19925;-61
2021/08/26 13:16:16;;;;;;;;;;;;;;;16.42;71.47;99919.06;4977727;28;20393;-61
2021/08/26 13:19:03;;;;;;;;;;;;;;;16.42;71.21;99916.47;4977783;28;20397;-62
2021/08/26 13:21:47;;;;;;;;;;;;;;;16.41;71.20;99913.00;4977885;28;19967;-62
2021/08/26 13:24:37;;;;;;;;;;;;;;;16.43;71.22;99923.44;4978145;28;19925;-63
2021/08/26 13:27:22;;;;;;;;;;;;;;;16.42;71.35;99921.69;4962928;28;19925;-63
2021/08/26 13:30:06;;;;;;;;;;;;;;;16.41;71.14;99931.28;4962844;28;19929;-63
2021/08/26 13:32:51;;;;;;;;;;;;;;;16.41;71.09;99930.41;4962677;28;19925;-63
2021/08/26 13:35:36;;;;;;;;;;;;;;;16.40;71.13;99929.56;4962945;28;20037;-63
2021/08/26 13:38:20;;;;;;;;;;;;;;;16.41;71.10;99926.06;4962948;28;19925;-61
2021/08/26 13:41:04;;;;;;;;;;;;;;;16.41;71.12;99923.44;4977405;28;20285;-61
2021/08/26 13:43:48;;;;;;;;;;;;;;;16.42;71.13;99933.03;4977417;28;19924;-61
2021/08/26 13:46:34;;;;;;;;;;;;;;;16.41;71.25;99920.84;4977377;28;19925;-61
2021/08/26 13:49:21;;;;;;;;;;;;;;;16.43;71.42;99918.19;4977323;28;19945;-61
2021/08/26 13:52:06;;;;;;;;;;;;;;;16.43;71.28;99912.97;4977199;28;20082;-61
2021/08/26 13:54:50;;;;;;;;;;;;;;;16.44;71.27;99909.47;4976708;28;19925;-61
2021/08/26 13:57:34;;;;;;;;;;;;;;;16.44;71.30;99899.84;4977377;28;20277;-63
2021/08/26 14:00:21;;;;;;;;;;;;;;;16.47;71.32;99895.47;4977234;28;19972;-63
2021/08/26 14:03:05;;;;;;;;;;;;;;;16.47;71.40;99896.38;4977096;28;19988;-62
2021/08/26 14:05:49;;;;;;;;;;;;;;;16.48;71.46;99891.97;4976724;28;19940;-63
2021/08/26 14:08:40;;;;;;;;;;;;;;;16.49;71.36;99897.22;4977059;28;20021;-63
2021/08/26 14:11:25;;;;;;;;;;;;;;;16.50;71.46;99893.72;4962136;28;19925;-63
2021/08/26 14:14:10;;;;;;;;;;;;;;;16.50;71.40;99891.09;4976803;28;20388;-61
2021/08/26 14:17:00;;;;;;;;;;;;;;;16.52;71.15;99880.63;4976741;28;19925;-63
2021/08/26 14:19:46;;;;;;;;;;;;;;;16.53;71.38;99882.34;4960980;28;19986;-64
2021/08/26 14:22:30;;;;;;;;;;;;;;;16.51;71.30;99879.72;4962271;28;20285;-61
2021/08/26 14:25:14;;;;;;;;;;;;;;;16.55;71.44;99880.59;4976755;28;19972;-61
2021/08/26 14:28:01;;;;;;;;;;;;;;;16.54;71.36;99878.84;4962383;28;19925;-62